sensor_id;sensor_type;location;lat;lon;timestamp;P1;durP1;ratioP1;P2;durP2;ratioP2
67715;SDS011;54508;43.238;25.306;2022-11-24T00:01:15;11.53;;;7.60;;
67715;SDS011;54508;43.238;25.306;2022-11-24T00:03:50;11.80;;;7.40;;
67715;SDS011;54508;43.238;25.306;2022-11-24T00:06:17;9.57;;;7.10;;
67715;SDS011;54508;43.238;25.306;2022-11-24T00:08:44;9.53;;;7.20;;
67715;SDS011;54508;43.238;25.306;2022-11-24T00:11:31;10.85;;;7.50;;
67715;SDS011;54508;43.238;25.306;2022-11-24T00:13:57;11.52;;;7.40;;
67715;SDS011;54508;43.238;25.306;2022-11-24T00:16:24;12.77;;;7.63;;
67715;SDS011;54508;43.238;25.306;2022-11-24T00:18:52;10.05;;;6.70;;
67715;SDS011;54508;43.238;25.306;2022-11-24T00:21:18;9.30;;;6.38;;
67715;SDS011;54508;43.238;25.306;2022-11-24T00:23:44;9.98;;;7.43;;
67715;SDS011;54508;43.238;25.306;2022-11-24T00:26:12;10.43;;;7.32;;
67715;SDS011;54508;43.238;25.306;2022-11-24T00:28:38;9.17;;;6.67;;
67715;SDS011;54508;43.238;25.306;2022-11-24T00:31:12;9.57;;;7.32;;
67715;SDS011;54508;43.238;25.306;2022-11-24T00:33:42;11.10;;;7.63;;
67715;SDS011;54508;43.238;25.306;2022-11-24T00:36:08;8.90;;;6.60;;
67715;SDS011;54508;43.238;25.306;2022-11-24T00:38:33;9.88;;;6.93;;
67715;SDS011;54508;43.238;25.306;2022-11-24T00:40:58;9.15;;;6.28;;
67715;SDS011;54508;43.238;25.306;2022-11-24T00:43:24;9.93;;;6.20;;
67715;SDS011;54508;43.238;25.306;2022-11-24T00:45:49;11.27;;;7.00;;
67715;SDS011;54508;43.238;25.306;2022-11-24T00:48:15;9.20;;;6.80;;
67715;SDS011;54508;43.238;25.306;2022-11-24T00:50:40;9.52;;;6.43;;
67715;SDS011;54508;43.238;25.306;2022-11-24T00:53:06;9.37;;;6.40;;
67715;SDS011;54508;43.238;25.306;2022-11-24T00:55:31;10.13;;;7.03;;
67715;SDS011;54508;43.238;25.306;2022-11-24T00:57:57;9.83;;;6.90;;
67715;SDS011;54508;43.238;25.306;2022-11-24T01:00:22;9.65;;;6.43;;
67715;SDS011;54508;43.238;25.306;2022-11-24T01:02:47;9.70;;;6.23;;
67715;SDS011;54508;43.238;25.306;2022-11-24T01:05:13;9.77;;;6.40;;
67715;SDS011;54508;43.238;25.306;2022-11-24T01:07:38;10.40;;;6.57;;
67715;SDS011;54508;43.238;25.306;2022-11-24T01:10:04;8.97;;;6.23;;
67715;SDS011;54508;43.238;25.306;2022-11-24T01:12:30;9.75;;;6.57;;
67715;SDS011;54508;43.238;25.306;2022-11-24T01:14:56;8.85;;;6.20;;
67715;SDS011;54508;43.238;25.306;2022-11-24T01:17:22;9.70;;;5.75;;
67715;SDS011;54508;43.238;25.306;2022-11-24T01:19:48;10.53;;;6.77;;
67715;SDS011;54508;43.238;25.306;2022-11-24T01:22:13;9.93;;;6.10;;
67715;SDS011;54508;43.238;25.306;2022-11-24T01:24:39;8.23;;;6.22;;
67715;SDS011;54508;43.238;25.306;2022-11-24T01:27:05;10.73;;;7.20;;
67715;SDS011;54508;43.238;25.306;2022-11-24T01:29:30;9.35;;;6.50;;
67715;SDS011;54508;43.238;25.306;2022-11-24T01:31:56;8.53;;;6.13;;
67715;SDS011;54508;43.238;25.306;2022-11-24T01:34:21;9.57;;;6.07;;
67715;SDS011;54508;43.238;25.306;2022-11-24T01:36:47;9.25;;;6.05;;
67715;SDS011;54508;43.238;25.306;2022-11-24T01:39:12;8.77;;;6.20;;
67715;SDS011;54508;43.238;25.306;2022-11-24T01:41:38;7.53;;;6.03;;
67715;SDS011;54508;43.238;25.306;2022-11-24T01:44:23;7.53;;;5.90;;
67715;SDS011;54508;43.238;25.306;2022-11-24T01:46:52;9.57;;;6.20;;
67715;SDS011;54508;43.238;25.306;2022-11-24T01:49:20;8.90;;;6.10;;
67715;SDS011;54508;43.238;25.306;2022-11-24T01:51:54;9.02;;;6.22;;
67715;SDS011;54508;43.238;25.306;2022-11-24T01:54:29;8.85;;;6.65;;
67715;SDS011;54508;43.238;25.306;2022-11-24T01:56:59;9.65;;;6.18;;
67715;SDS011;54508;43.238;25.306;2022-11-24T01:59:29;7.73;;;5.63;;
67715;SDS011;54508;43.238;25.306;2022-11-24T02:01:55;9.27;;;6.30;;
67715;SDS011;54508;43.238;25.306;2022-11-24T02:04:22;9.00;;;5.75;;
67715;SDS011;54508;43.238;25.306;2022-11-24T02:06:50;9.00;;;5.90;;
67715;SDS011;54508;43.238;25.306;2022-11-24T02:09:20;7.53;;;5.43;;
67715;SDS011;54508;43.238;25.306;2022-11-24T02:11:48;9.13;;;6.25;;
67715;SDS011;54508;43.238;25.306;2022-11-24T02:14:14;7.80;;;5.85;;
67715;SDS011;54508;43.238;25.306;2022-11-24T02:16:41;8.40;;;6.32;;
67715;SDS011;54508;43.238;25.306;2022-11-24T02:19:14;8.65;;;6.35;;
67715;SDS011;54508;43.238;25.306;2022-11-24T02:21:53;8.38;;;5.70;;
67715;SDS011;54508;43.238;25.306;2022-11-24T02:24:21;8.93;;;5.40;;
67715;SDS011;54508;43.238;25.306;2022-11-24T02:26:49;8.73;;;5.88;;
67715;SDS011;54508;43.238;25.306;2022-11-24T02:29:16;6.97;;;5.30;;
67715;SDS011;54508;43.238;25.306;2022-11-24T02:31:43;8.60;;;6.10;;
67715;SDS011;54508;43.238;25.306;2022-11-24T02:34:11;7.53;;;5.67;;
67715;SDS011;54508;43.238;25.306;2022-11-24T02:36:37;7.40;;;5.80;;
67715;SDS011;54508;43.238;25.306;2022-11-24T02:39:02;9.07;;;6.10;;
67715;SDS011;54508;43.238;25.306;2022-11-24T02:41:29;7.47;;;5.18;;
67715;SDS011;54508;43.238;25.306;2022-11-24T02:43:55;9.07;;;6.07;;
67715;SDS011;54508;43.238;25.306;2022-11-24T02:46:25;8.43;;;6.22;;
67715;SDS011;54508;43.238;25.306;2022-11-24T02:48:50;7.83;;;5.67;;
67715;SDS011;54508;43.238;25.306;2022-11-24T02:51:16;8.40;;;5.70;;
67715;SDS011;54508;43.238;25.306;2022-11-24T02:53:41;8.02;;;5.68;;
67715;SDS011;54508;43.238;25.306;2022-11-24T02:56:07;9.10;;;5.87;;
67715;SDS011;54508;43.238;25.306;2022-11-24T02:58:32;8.23;;;5.70;;
67715;SDS011;54508;43.238;25.306;2022-11-24T03:00:58;7.63;;;5.47;;
67715;SDS011;54508;43.238;25.306;2022-11-24T03:03:24;7.75;;;5.78;;
67715;SDS011;54508;43.238;25.306;2022-11-24T03:05:49;7.67;;;5.37;;
67715;SDS011;54508;43.238;25.306;2022-11-24T03:08:15;8.80;;;5.53;;
67715;SDS011;54508;43.238;25.306;2022-11-24T03:10:40;11.70;;;7.00;;
67715;SDS011;54508;43.238;25.306;2022-11-24T03:13:06;7.90;;;5.47;;
67715;SDS011;54508;43.238;25.306;2022-11-24T03:15:32;7.68;;;5.50;;
67715;SDS011;54508;43.238;25.306;2022-11-24T03:17:57;7.57;;;5.67;;
67715;SDS011;54508;43.238;25.306;2022-11-24T03:20:23;7.13;;;5.47;;
67715;SDS011;54508;43.238;25.306;2022-11-24T03:22:49;7.80;;;5.80;;
67715;SDS011;54508;43.238;25.306;2022-11-24T03:25:14;6.97;;;5.10;;
67715;SDS011;54508;43.238;25.306;2022-11-24T03:27:40;6.70;;;5.15;;
67715;SDS011;54508;43.238;25.306;2022-11-24T03:30:06;7.20;;;4.87;;
67715;SDS011;54508;43.238;25.306;2022-11-24T03:32:32;7.43;;;4.97;;
67715;SDS011;54508;43.238;25.306;2022-11-24T03:34:57;7.07;;;5.20;;
67715;SDS011;54508;43.238;25.306;2022-11-24T03:37:23;6.90;;;5.10;;
67715;SDS011;54508;43.238;25.306;2022-11-24T03:39:48;8.23;;;5.32;;
67715;SDS011;54508;43.238;25.306;2022-11-24T03:42:14;6.93;;;5.00;;
67715;SDS011;54508;43.238;25.306;2022-11-24T03:44:39;6.88;;;4.95;;
67715;SDS011;54508;43.238;25.306;2022-11-24T03:47:05;7.18;;;5.25;;
67715;SDS011;54508;43.238;25.306;2022-11-24T03:49:30;7.83;;;5.43;;
67715;SDS011;54508;43.238;25.306;2022-11-24T03:51:56;6.37;;;4.87;;
67715;SDS011;54508;43.238;25.306;2022-11-24T03:54:21;6.83;;;4.83;;
67715;SDS011;54508;43.238;25.306;2022-11-24T03:56:47;5.93;;;4.90;;
67715;SDS011;54508;43.238;25.306;2022-11-24T03:59:12;6.93;;;4.90;;
67715;SDS011;54508;43.238;25.306;2022-11-24T04:01:37;7.10;;;5.40;;
67715;SDS011;54508;43.238;25.306;2022-11-24T04:04:03;7.53;;;4.70;;
67715;SDS011;54508;43.238;25.306;2022-11-24T04:06:28;5.80;;;4.70;;
67715;SDS011;54508;43.238;25.306;2022-11-24T04:08:54;5.87;;;4.50;;
67715;SDS011;54508;43.238;25.306;2022-11-24T04:11:19;7.03;;;5.17;;
67715;SDS011;54508;43.238;25.306;2022-11-24T04:14:03;5.30;;;4.20;;
67715;SDS011;54508;43.238;25.306;2022-11-24T04:16:28;6.43;;;4.57;;
67715;SDS011;54508;43.238;25.306;2022-11-24T04:18:54;7.17;;;4.87;;
67715;SDS011;54508;43.238;25.306;2022-11-24T04:21:19;6.67;;;4.73;;
67715;SDS011;54508;43.238;25.306;2022-11-24T04:23:45;6.57;;;4.30;;
67715;SDS011;54508;43.238;25.306;2022-11-24T04:26:11;5.50;;;4.37;;
67715;SDS011;54508;43.238;25.306;2022-11-24T04:28:36;6.82;;;4.90;;
67715;SDS011;54508;43.238;25.306;2022-11-24T04:31:03;5.27;;;4.20;;
67715;SDS011;54508;43.238;25.306;2022-11-24T04:33:29;6.20;;;4.70;;
67715;SDS011;54508;43.238;25.306;2022-11-24T04:35:55;6.43;;;4.73;;
67715;SDS011;54508;43.238;25.306;2022-11-24T04:38:20;4.97;;;4.07;;
67715;SDS011;54508;43.238;25.306;2022-11-24T04:40:46;5.93;;;4.40;;
67715;SDS011;54508;43.238;25.306;2022-11-24T04:43:11;6.40;;;4.60;;
67715;SDS011;54508;43.238;25.306;2022-11-24T04:45:37;6.73;;;4.37;;
67715;SDS011;54508;43.238;25.306;2022-11-24T04:48:02;7.00;;;4.63;;
67715;SDS011;54508;43.238;25.306;2022-11-24T04:50:28;6.05;;;4.35;;
67715;SDS011;54508;43.238;25.306;2022-11-24T04:52:54;5.70;;;4.22;;
67715;SDS011;54508;43.238;25.306;2022-11-24T04:55:19;6.80;;;4.70;;
67715;SDS011;54508;43.238;25.306;2022-11-24T04:57:45;6.27;;;4.53;;
67715;SDS011;54508;43.238;25.306;2022-11-24T05:00:10;5.75;;;4.28;;
67715;SDS011;54508;43.238;25.306;2022-11-24T05:02:36;6.70;;;4.93;;
67715;SDS011;54508;43.238;25.306;2022-11-24T05:05:02;6.30;;;4.88;;
67715;SDS011;54508;43.238;25.306;2022-11-24T05:07:28;6.15;;;4.30;;
67715;SDS011;54508;43.238;25.306;2022-11-24T05:09:54;6.40;;;4.70;;
67715;SDS011;54508;43.238;25.306;2022-11-24T05:12:38;5.90;;;4.60;;
67715;SDS011;54508;43.238;25.306;2022-11-24T05:15:04;6.13;;;4.20;;
67715;SDS011;54508;43.238;25.306;2022-11-24T05:17:31;5.30;;;4.25;;
67715;SDS011;54508;43.238;25.306;2022-11-24T05:19:58;6.90;;;4.95;;
67715;SDS011;54508;43.238;25.306;2022-11-24T05:22:24;6.22;;;4.25;;
67715;SDS011;54508;43.238;25.306;2022-11-24T05:24:49;5.68;;;4.28;;
67715;SDS011;54508;43.238;25.306;2022-11-24T05:27:15;5.72;;;4.38;;
67715;SDS011;54508;43.238;25.306;2022-11-24T05:29:40;6.20;;;4.53;;
67715;SDS011;54508;43.238;25.306;2022-11-24T05:32:06;5.23;;;4.30;;
67715;SDS011;54508;43.238;25.306;2022-11-24T05:34:31;6.80;;;4.40;;
67715;SDS011;54508;43.238;25.306;2022-11-24T05:36:59;6.15;;;4.20;;
67715;SDS011;54508;43.238;25.306;2022-11-24T05:39:36;5.95;;;4.07;;
67715;SDS011;54508;43.238;25.306;2022-11-24T05:42:02;6.47;;;4.38;;
67715;SDS011;54508;43.238;25.306;2022-11-24T05:44:48;6.18;;;4.20;;
67715;SDS011;54508;43.238;25.306;2022-11-24T05:47:14;5.13;;;3.83;;
67715;SDS011;54508;43.238;25.306;2022-11-24T05:49:39;8.40;;;4.37;;
67715;SDS011;54508;43.238;25.306;2022-11-24T05:52:05;6.45;;;4.65;;
67715;SDS011;54508;43.238;25.306;2022-11-24T05:54:30;5.53;;;4.35;;
67715;SDS011;54508;43.238;25.306;2022-11-24T05:56:56;5.23;;;4.13;;
67715;SDS011;54508;43.238;25.306;2022-11-24T05:59:21;5.60;;;4.23;;
67715;SDS011;54508;43.238;25.306;2022-11-24T06:01:47;5.23;;;4.00;;
67715;SDS011;54508;43.238;25.306;2022-11-24T06:04:12;5.75;;;4.18;;
67715;SDS011;54508;43.238;25.306;2022-11-24T06:06:38;7.97;;;5.05;;
67715;SDS011;54508;43.238;25.306;2022-11-24T06:09:03;8.47;;;4.53;;
67715;SDS011;54508;43.238;25.306;2022-11-24T06:11:29;8.37;;;4.83;;
67715;SDS011;54508;43.238;25.306;2022-11-24T06:13:54;17.90;;;4.85;;
67715;SDS011;54508;43.238;25.306;2022-11-24T06:16:20;21.37;;;5.50;;
67715;SDS011;54508;43.238;25.306;2022-11-24T06:18:45;13.43;;;4.90;;
67715;SDS011;54508;43.238;25.306;2022-11-24T06:21:11;14.70;;;5.03;;
67715;SDS011;54508;43.238;25.306;2022-11-24T06:23:36;10.60;;;5.37;;
67715;SDS011;54508;43.238;25.306;2022-11-24T06:26:02;20.55;;;5.50;;
67715;SDS011;54508;43.238;25.306;2022-11-24T06:28:28;76.57;;;9.07;;
67715;SDS011;54508;43.238;25.306;2022-11-24T06:30:53;156.87;;;14.67;;
67715;SDS011;54508;43.238;25.306;2022-11-24T06:33:19;59.75;;;9.48;;
67715;SDS011;54508;43.238;25.306;2022-11-24T06:35:44;91.17;;;10.60;;
67715;SDS011;54508;43.238;25.306;2022-11-24T06:38:10;78.33;;;10.33;;
67715;SDS011;54508;43.238;25.306;2022-11-24T06:40:35;86.18;;;9.52;;
67715;SDS011;54508;43.238;25.306;2022-11-24T06:43:01;46.37;;;8.60;;
67715;SDS011;54508;43.238;25.306;2022-11-24T06:45:26;57.93;;;7.70;;
67715;SDS011;54508;43.238;25.306;2022-11-24T06:47:52;41.37;;;7.87;;
67715;SDS011;54508;43.238;25.306;2022-11-24T06:50:18;50.10;;;9.25;;
67715;SDS011;54508;43.238;25.306;2022-11-24T06:52:44;35.73;;;7.27;;
67715;SDS011;54508;43.238;25.306;2022-11-24T06:55:09;39.50;;;8.63;;
67715;SDS011;54508;43.238;25.306;2022-11-24T06:57:35;37.47;;;7.13;;
67715;SDS011;54508;43.238;25.306;2022-11-24T07:00:01;34.93;;;6.90;;
67715;SDS011;54508;43.238;25.306;2022-11-24T07:02:28;29.85;;;6.68;;
67715;SDS011;54508;43.238;25.306;2022-11-24T07:04:53;22.57;;;6.17;;
67715;SDS011;54508;43.238;25.306;2022-11-24T07:07:19;27.53;;;6.93;;
67715;SDS011;54508;43.238;25.306;2022-11-24T07:09:44;20.63;;;6.50;;
67715;SDS011;54508;43.238;25.306;2022-11-24T07:12:10;22.17;;;5.93;;
67715;SDS011;54508;43.238;25.306;2022-11-24T07:14:35;20.42;;;6.47;;
67715;SDS011;54508;43.238;25.306;2022-11-24T07:17:01;20.57;;;5.03;;
67715;SDS011;54508;43.238;25.306;2022-11-24T07:19:28;15.13;;;5.30;;
67715;SDS011;54508;43.238;25.306;2022-11-24T07:21:54;16.90;;;5.30;;
67715;SDS011;54508;43.238;25.306;2022-11-24T07:24:19;13.13;;;4.87;;
67715;SDS011;54508;43.238;25.306;2022-11-24T07:26:45;12.68;;;4.80;;
67715;SDS011;54508;43.238;25.306;2022-11-24T07:29:10;12.77;;;4.47;;
67715;SDS011;54508;43.238;25.306;2022-11-24T07:31:36;13.60;;;5.07;;
67715;SDS011;54508;43.238;25.306;2022-11-24T07:34:01;13.40;;;4.65;;
67715;SDS011;54508;43.238;25.306;2022-11-24T07:36:27;7.73;;;4.33;;
67715;SDS011;54508;43.238;25.306;2022-11-24T07:38:52;12.37;;;5.33;;
67715;SDS011;54508;43.238;25.306;2022-11-24T07:41:18;9.03;;;4.27;;
67715;SDS011;54508;43.238;25.306;2022-11-24T07:43:44;8.63;;;4.40;;
67715;SDS011;54508;43.238;25.306;2022-11-24T07:46:11;9.45;;;5.63;;
67715;SDS011;54508;43.238;25.306;2022-11-24T07:48:37;7.22;;;3.85;;
67715;SDS011;54508;43.238;25.306;2022-11-24T07:51:03;5.97;;;4.18;;
67715;SDS011;54508;43.238;25.306;2022-11-24T07:53:29;8.20;;;4.10;;
67715;SDS011;54508;43.238;25.306;2022-11-24T07:55:56;8.67;;;4.13;;
67715;SDS011;54508;43.238;25.306;2022-11-24T07:58:25;17.20;;;4.63;;
67715;SDS011;54508;43.238;25.306;2022-11-24T08:00:53;7.88;;;4.80;;
67715;SDS011;54508;43.238;25.306;2022-11-24T08:03:19;8.13;;;5.32;;
67715;SDS011;54508;43.238;25.306;2022-11-24T08:05:55;14.33;;;5.07;;
67715;SDS011;54508;43.238;25.306;2022-11-24T08:08:21;7.20;;;4.88;;
67715;SDS011;54508;43.238;25.306;2022-11-24T08:10:46;11.60;;;6.15;;
67715;SDS011;54508;43.238;25.306;2022-11-24T08:13:12;11.83;;;5.53;;
67715;SDS011;54508;43.238;25.306;2022-11-24T08:15:37;6.97;;;4.77;;
67715;SDS011;54508;43.238;25.306;2022-11-24T08:18:03;13.98;;;5.85;;
67715;SDS011;54508;43.238;25.306;2022-11-24T08:20:29;9.67;;;5.07;;
67715;SDS011;54508;43.238;25.306;2022-11-24T08:22:58;9.97;;;5.17;;
67715;SDS011;54508;43.238;25.306;2022-11-24T08:25:24;11.00;;;5.47;;
67715;SDS011;54508;43.238;25.306;2022-11-24T08:27:55;10.75;;;5.22;;
67715;SDS011;54508;43.238;25.306;2022-11-24T08:30:21;8.63;;;4.90;;
67715;SDS011;54508;43.238;25.306;2022-11-24T08:32:46;11.87;;;4.60;;
67715;SDS011;54508;43.238;25.306;2022-11-24T08:35:12;10.70;;;4.17;;
67715;SDS011;54508;43.238;25.306;2022-11-24T08:37:38;11.05;;;4.72;;
67715;SDS011;54508;43.238;25.306;2022-11-24T08:40:03;7.73;;;4.13;;
67715;SDS011;54508;43.238;25.306;2022-11-24T08:42:29;14.63;;;5.28;;
67715;SDS011;54508;43.238;25.306;2022-11-24T08:44:55;7.27;;;5.07;;
67715;SDS011;54508;43.238;25.306;2022-11-24T08:47:20;12.73;;;4.90;;
67715;SDS011;54508;43.238;25.306;2022-11-24T08:49:46;10.63;;;5.20;;
67715;SDS011;54508;43.238;25.306;2022-11-24T08:52:12;7.57;;;4.50;;
67715;SDS011;54508;43.238;25.306;2022-11-24T08:54:37;7.65;;;4.75;;
67715;SDS011;54508;43.238;25.306;2022-11-24T08:57:04;10.73;;;4.43;;
67715;SDS011;54508;43.238;25.306;2022-11-24T08:59:30;8.75;;;4.20;;
67715;SDS011;54508;43.238;25.306;2022-11-24T09:01:55;10.23;;;4.17;;
67715;SDS011;54508;43.238;25.306;2022-11-24T09:04:21;13.27;;;5.03;;
67715;SDS011;54508;43.238;25.306;2022-11-24T09:06:46;12.83;;;5.33;;
67715;SDS011;54508;43.238;25.306;2022-11-24T09:09:12;11.32;;;5.13;;
67715;SDS011;54508;43.238;25.306;2022-11-24T09:11:37;11.43;;;5.77;;
67715;SDS011;54508;43.238;25.306;2022-11-24T09:14:03;7.93;;;5.13;;
67715;SDS011;54508;43.238;25.306;2022-11-24T09:16:28;7.35;;;4.70;;
67715;SDS011;54508;43.238;25.306;2022-11-24T09:19:04;23.47;;;5.70;;
67715;SDS011;54508;43.238;25.306;2022-11-24T09:21:30;10.88;;;5.00;;
67715;SDS011;54508;43.238;25.306;2022-11-24T09:23:58;20.73;;;5.45;;
67715;SDS011;54508;43.238;25.306;2022-11-24T09:26:27;18.83;;;4.70;;
67715;SDS011;54508;43.238;25.306;2022-11-24T09:28:54;8.00;;;4.70;;
67715;SDS011;54508;43.238;25.306;2022-11-24T09:31:21;7.35;;;4.32;;
67715;SDS011;54508;43.238;25.306;2022-11-24T09:33:49;12.18;;;4.63;;
67715;SDS011;54508;43.238;25.306;2022-11-24T09:36:14;8.23;;;4.28;;
67715;SDS011;54508;43.238;25.306;2022-11-24T09:38:40;14.13;;;4.67;;
67715;SDS011;54508;43.238;25.306;2022-11-24T09:46:57;7.68;;;4.60;;
67715;SDS011;54508;43.238;25.306;2022-11-24T09:50:04;6.20;;;4.40;;
67715;SDS011;54508;43.238;25.306;2022-11-24T09:52:48;9.52;;;5.15;;
67715;SDS011;54508;43.238;25.306;2022-11-24T10:01:14;7.55;;;4.88;;
67715;SDS011;54508;43.238;25.306;2022-11-24T10:03:47;8.80;;;5.22;;
67715;SDS011;54508;43.238;25.306;2022-11-24T10:06:26;7.53;;;5.03;;
67715;SDS011;54508;43.238;25.306;2022-11-24T10:17:08;6.75;;;5.13;;
67715;SDS011;54508;43.238;25.306;2022-11-24T10:19:50;10.13;;;4.97;;
67715;SDS011;54508;43.238;25.306;2022-11-24T10:27:38;9.40;;;4.30;;
67715;SDS011;54508;43.238;25.306;2022-11-24T10:30:16;11.05;;;4.40;;
67715;SDS011;54508;43.238;25.306;2022-11-24T10:32:47;6.72;;;4.00;;
67715;SDS011;54508;43.238;25.306;2022-11-24T10:35:37;5.93;;;4.13;;
67715;SDS011;54508;43.238;25.306;2022-11-24T10:41:03;6.65;;;4.07;;
67715;SDS011;54508;43.238;25.306;2022-11-24T10:43:29;9.25;;;4.30;;
67715;SDS011;54508;43.238;25.306;2022-11-24T10:45:58;7.33;;;4.00;;
67715;SDS011;54508;43.238;25.306;2022-11-24T10:48:36;7.50;;;3.63;;
67715;SDS011;54508;43.238;25.306;2022-11-24T10:54:11;5.82;;;3.50;;
67715;SDS011;54508;43.238;25.306;2022-11-24T10:56:41;7.63;;;3.30;;
67715;SDS011;54508;43.238;25.306;2022-11-24T11:01:49;7.90;;;3.30;;
67715;SDS011;54508;43.238;25.306;2022-11-24T11:04:28;6.75;;;3.53;;
67715;SDS011;54508;43.238;25.306;2022-11-24T11:09:39;3.45;;;2.55;;
67715;SDS011;54508;43.238;25.306;2022-11-24T11:12:09;5.73;;;3.10;;
67715;SDS011;54508;43.238;25.306;2022-11-24T11:14:48;10.35;;;3.17;;
67715;SDS011;54508;43.238;25.306;2022-11-24T11:17:33;5.18;;;2.85;;
67715;SDS011;54508;43.238;25.306;2022-11-24T11:20:01;3.35;;;2.67;;
67715;SDS011;54508;43.238;25.306;2022-11-24T11:22:29;3.50;;;2.47;;
67715;SDS011;54508;43.238;25.306;2022-11-24T11:25:04;5.00;;;3.00;;
67715;SDS011;54508;43.238;25.306;2022-11-24T11:27:31;5.70;;;2.70;;
67715;SDS011;54508;43.238;25.306;2022-11-24T11:32:55;5.03;;;2.75;;
67715;SDS011;54508;43.238;25.306;2022-11-24T11:35:24;3.60;;;2.50;;
67715;SDS011;54508;43.238;25.306;2022-11-24T11:37:52;4.80;;;2.67;;
67715;SDS011;54508;43.238;25.306;2022-11-24T11:40:29;7.97;;;3.05;;
67715;SDS011;54508;43.238;25.306;2022-11-24T11:42:58;7.38;;;2.80;;
67715;SDS011;54508;43.238;25.306;2022-11-24T11:45:27;5.80;;;2.90;;
67715;SDS011;54508;43.238;25.306;2022-11-24T11:48:14;3.47;;;2.33;;
67715;SDS011;54508;43.238;25.306;2022-11-24T11:50:51;3.85;;;3.17;;
67715;SDS011;54508;43.238;25.306;2022-11-24T11:53:27;3.85;;;2.42;;
67715;SDS011;54508;43.238;25.306;2022-11-24T11:56:27;5.30;;;3.00;;
67715;SDS011;54508;43.238;25.306;2022-11-24T12:01:45;4.72;;;2.45;;
67715;SDS011;54508;43.238;25.306;2022-11-24T12:04:38;6.22;;;2.60;;
67715;SDS011;54508;43.238;25.306;2022-11-24T12:17:50;6.47;;;2.50;;
67715;SDS011;54508;43.238;25.306;2022-11-24T12:20:41;3.78;;;2.35;;
67715;SDS011;54508;43.238;25.306;2022-11-24T12:25:50;8.82;;;2.30;;
67715;SDS011;54508;43.238;25.306;2022-11-24T12:31:25;3.08;;;2.40;;
67715;SDS011;54508;43.238;25.306;2022-11-24T12:34:16;4.70;;;2.40;;
67715;SDS011;54508;43.238;25.306;2022-11-24T12:37:13;5.30;;;2.92;;
67715;SDS011;54508;43.238;25.306;2022-11-24T12:40:13;6.57;;;2.78;;
67715;SDS011;54508;43.238;25.306;2022-11-24T12:51:10;3.90;;;2.42;;
67715;SDS011;54508;43.238;25.306;2022-11-24T12:53:41;8.18;;;2.40;;
67715;SDS011;54508;43.238;25.306;2022-11-24T12:56:08;10.10;;;2.40;;
67715;SDS011;54508;43.238;25.306;2022-11-24T12:59:11;6.68;;;2.60;;
67715;SDS011;54508;43.238;25.306;2022-11-24T13:04:41;5.63;;;2.70;;
67715;SDS011;54508;43.238;25.306;2022-11-24T13:07:38;4.47;;;2.72;;
67715;SDS011;54508;43.238;25.306;2022-11-24T13:10:25;5.47;;;2.83;;
67715;SDS011;54508;43.238;25.306;2022-11-24T13:15:29;7.93;;;3.35;;
67715;SDS011;54508;43.238;25.306;2022-11-24T13:17:55;4.88;;;4.00;;
67715;SDS011;54508;43.238;25.306;2022-11-24T13:20:25;17.60;;;4.25;;
67715;SDS011;54508;43.238;25.306;2022-11-24T13:22:59;23.90;;;4.43;;
67715;SDS011;54508;43.238;25.306;2022-11-24T13:25:29;10.90;;;4.47;;
67715;SDS011;54508;43.238;25.306;2022-11-24T13:27:57;19.15;;;4.78;;
67715;SDS011;54508;43.238;25.306;2022-11-24T13:35:36;13.43;;;4.30;;
67715;SDS011;54508;43.238;25.306;2022-11-24T13:41:08;9.02;;;3.70;;
67715;SDS011;54508;43.238;25.306;2022-11-24T13:43:34;6.10;;;3.47;;
67715;SDS011;54508;43.238;25.306;2022-11-24T13:46:00;5.93;;;3.60;;
67715;SDS011;54508;43.238;25.306;2022-11-24T14:03:28;8.50;;;3.20;;
67715;SDS011;54508;43.238;25.306;2022-11-24T14:05:56;4.70;;;2.83;;
67715;SDS011;54508;43.238;25.306;2022-11-24T14:08:26;6.15;;;2.80;;
67715;SDS011;54508;43.238;25.306;2022-11-24T14:11:01;4.80;;;3.07;;
67715;SDS011;54508;43.238;25.306;2022-11-24T14:13:29;5.43;;;3.45;;
67715;SDS011;54508;43.238;25.306;2022-11-24T14:18:30;5.45;;;3.55;;
67715;SDS011;54508;43.238;25.306;2022-11-24T14:20:57;6.57;;;3.42;;
67715;SDS011;54508;43.238;25.306;2022-11-24T14:23:23;6.70;;;4.20;;
67715;SDS011;54508;43.238;25.306;2022-11-24T14:25:49;5.15;;;4.18;;
67715;SDS011;54508;43.238;25.306;2022-11-24T14:28:20;7.20;;;4.05;;
67715;SDS011;54508;43.238;25.306;2022-11-24T14:30:46;6.97;;;3.90;;
67715;SDS011;54508;43.238;25.306;2022-11-24T14:33:11;7.30;;;4.28;;
67715;SDS011;54508;43.238;25.306;2022-11-24T14:35:47;9.27;;;4.57;;
67715;SDS011;54508;43.238;25.306;2022-11-24T14:38:14;8.35;;;4.25;;
67715;SDS011;54508;43.238;25.306;2022-11-24T14:45:48;8.32;;;4.18;;
67715;SDS011;54508;43.238;25.306;2022-11-24T14:48:23;6.63;;;4.22;;
67715;SDS011;54508;43.238;25.306;2022-11-24T14:50:51;8.00;;;4.35;;
67715;SDS011;54508;43.238;25.306;2022-11-24T14:53:17;7.45;;;4.30;;
67715;SDS011;54508;43.238;25.306;2022-11-24T14:55:44;8.63;;;4.10;;
67715;SDS011;54508;43.238;25.306;2022-11-24T14:58:20;6.57;;;4.37;;
67715;SDS011;54508;43.238;25.306;2022-11-24T15:01:15;8.43;;;4.30;;
67715;SDS011;54508;43.238;25.306;2022-11-24T15:03:42;8.88;;;5.57;;
67715;SDS011;54508;43.238;25.306;2022-11-24T15:06:10;8.27;;;4.63;;
67715;SDS011;54508;43.238;25.306;2022-11-24T15:08:42;5.82;;;4.28;;
67715;SDS011;54508;43.238;25.306;2022-11-24T15:11:10;8.20;;;4.18;;
67715;SDS011;54508;43.238;25.306;2022-11-24T15:13:37;7.78;;;4.20;;
67715;SDS011;54508;43.238;25.306;2022-11-24T15:16:06;5.47;;;3.60;;
67715;SDS011;54508;43.238;25.306;2022-11-24T15:18:46;6.68;;;4.20;;
67715;SDS011;54508;43.238;25.306;2022-11-24T15:21:12;4.80;;;4.00;;
67715;SDS011;54508;43.238;25.306;2022-11-24T15:23:38;5.32;;;4.15;;
67715;SDS011;54508;43.238;25.306;2022-11-24T15:28:31;6.63;;;3.93;;
67715;SDS011;54508;43.238;25.306;2022-11-24T15:31:10;8.45;;;3.90;;
67715;SDS011;54508;43.238;25.306;2022-11-24T15:33:36;7.72;;;3.95;;
67715;SDS011;54508;43.238;25.306;2022-11-24T15:36:02;5.33;;;3.53;;
67715;SDS011;54508;43.238;25.306;2022-11-24T15:38:28;5.50;;;3.95;;
67715;SDS011;54508;43.238;25.306;2022-11-24T15:40:54;6.55;;;4.30;;
67715;SDS011;54508;43.238;25.306;2022-11-24T15:45:55;6.75;;;3.78;;
67715;SDS011;54508;43.238;25.306;2022-11-24T15:48:21;6.28;;;3.70;;
67715;SDS011;54508;43.238;25.306;2022-11-24T15:50:47;7.57;;;3.60;;
67715;SDS011;54508;43.238;25.306;2022-11-24T15:53:23;5.85;;;3.92;;
67715;SDS011;54508;43.238;25.306;2022-11-24T15:55:50;4.38;;;3.72;;
67715;SDS011;54508;43.238;25.306;2022-11-24T15:58:17;4.45;;;3.70;;
67715;SDS011;54508;43.238;25.306;2022-11-24T16:00:43;5.60;;;3.90;;
67715;SDS011;54508;43.238;25.306;2022-11-24T16:03:09;6.65;;;3.50;;
67715;SDS011;54508;43.238;25.306;2022-11-24T16:05:37;5.10;;;3.70;;
67715;SDS011;54508;43.238;25.306;2022-11-24T16:08:13;6.32;;;4.82;;
67715;SDS011;54508;43.238;25.306;2022-11-24T16:10:40;130.07;;;11.55;;
67715;SDS011;54508;43.238;25.306;2022-11-24T16:13:06;96.30;;;9.95;;
67715;SDS011;54508;43.238;25.306;2022-11-24T16:15:32;82.60;;;9.98;;
67715;SDS011;54508;43.238;25.306;2022-11-24T16:17:58;38.43;;;8.07;;
67715;SDS011;54508;43.238;25.306;2022-11-24T16:20:23;53.27;;;7.53;;
67715;SDS011;54508;43.238;25.306;2022-11-24T16:22:49;40.58;;;6.65;;
67715;SDS011;54508;43.238;25.306;2022-11-24T16:25:15;26.70;;;5.95;;
67715;SDS011;54508;43.238;25.306;2022-11-24T16:27:40;36.63;;;6.32;;